sensor_id;sensor_type;location;lat;lon;timestamp;P1;durP1;ratioP1;P2;durP2;ratioP2
78987;SDS011;74752;44.786;37.680;2024-03-06T00:00:21;29.85;;;14.20;;
78987;SDS011;74752;44.786;37.680;2024-03-06T00:01:27;29.15;;;14.85;;
78987;SDS011;74752;44.786;37.680;2024-03-06T00:02:29;32.40;;;15.32;;
78987;SDS011;74752;44.786;37.680;2024-03-06T00:03:34;31.15;;;14.95;;
78987;SDS011;74752;44.786;37.680;2024-03-06T00:04:38;26.23;;;14.45;;
78987;SDS011;74752;44.786;37.680;2024-03-06T00:05:40;24.58;;;13.70;;
78987;SDS011;74752;44.786;37.680;2024-03-06T00:06:42;26.65;;;14.80;;
78987;SDS011;74752;44.786;37.680;2024-03-06T00:07:45;30.23;;;14.25;;
78987;SDS011;74752;44.786;37.680;2024-03-06T00:08:47;28.10;;;14.88;;
78987;SDS011;74752;44.786;37.680;2024-03-06T00:09:50;27.13;;;14.55;;
78987;SDS011;74752;44.786;37.680;2024-03-06T00:10:52;24.52;;;12.98;;
78987;SDS011;74752;44.786;37.680;2024-03-06T00:11:55;24.67;;;15.32;;
78987;SDS011;74752;44.786;37.680;2024-03-06T00:12:59;69.45;;;16.90;;
78987;SDS011;74752;44.786;37.680;2024-03-06T00:14:05;24.75;;;13.23;;
78987;SDS011;74752;44.786;37.680;2024-03-06T00:16:09;28.80;;;13.45;;
78987;SDS011;74752;44.786;37.680;2024-03-06T00:17:11;22.52;;;14.30;;
78987;SDS011;74752;44.786;37.680;2024-03-06T00:18:17;29.45;;;14.43;;
78987;SDS011;74752;44.786;37.680;2024-03-06T00:19:22;28.98;;;14.68;;
78987;SDS011;74752;44.786;37.680;2024-03-06T00:20:27;24.98;;;14.57;;
78987;SDS011;74752;44.786;37.680;2024-03-06T00:21:30;30.08;;;14.43;;
78987;SDS011;74752;44.786;37.680;2024-03-06T00:22:32;32.10;;;14.10;;
78987;SDS011;74752;44.786;37.680;2024-03-06T00:23:35;25.67;;;13.93;;
78987;SDS011;74752;44.786;37.680;2024-03-06T00:24:41;28.80;;;15.00;;
78987;SDS011;74752;44.786;37.680;2024-03-06T00:25:49;25.50;;;14.88;;
78987;SDS011;74752;44.786;37.680;2024-03-06T00:26:51;21.63;;;13.65;;
78987;SDS011;74752;44.786;37.680;2024-03-06T00:27:57;29.02;;;14.15;;
78987;SDS011;74752;44.786;37.680;2024-03-06T00:29:00;28.42;;;13.77;;
78987;SDS011;74752;44.786;37.680;2024-03-06T00:30:05;30.00;;;15.20;;
78987;SDS011;74752;44.786;37.680;2024-03-06T00:31:09;26.55;;;15.32;;
78987;SDS011;74752;44.786;37.680;2024-03-06T00:32:11;28.60;;;13.98;;
78987;SDS011;74752;44.786;37.680;2024-03-06T00:33:15;25.15;;;14.52;;
78987;SDS011;74752;44.786;37.680;2024-03-06T00:34:18;34.08;;;14.43;;
78987;SDS011;74752;44.786;37.680;2024-03-06T00:35:21;24.70;;;14.00;;
78987;SDS011;74752;44.786;37.680;2024-03-06T00:36:26;24.73;;;14.57;;
78987;SDS011;74752;44.786;37.680;2024-03-06T00:37:29;28.17;;;14.10;;
78987;SDS011;74752;44.786;37.680;2024-03-06T00:38:31;27.60;;;15.48;;
78987;SDS011;74752;44.786;37.680;2024-03-06T00:39:35;29.35;;;15.05;;
78987;SDS011;74752;44.786;37.680;2024-03-06T00:40:39;28.00;;;13.52;;
78987;SDS011;74752;44.786;37.680;2024-03-06T00:41:45;25.63;;;14.32;;
78987;SDS011;74752;44.786;37.680;2024-03-06T00:42:48;29.30;;;15.98;;
78987;SDS011;74752;44.786;37.680;2024-03-06T00:43:50;38.80;;;16.17;;
78987;SDS011;74752;44.786;37.680;2024-03-06T00:44:52;38.35;;;17.00;;
78987;SDS011;74752;44.786;37.680;2024-03-06T00:45:55;36.67;;;15.65;;
78987;SDS011;74752;44.786;37.680;2024-03-06T00:46:57;27.33;;;15.25;;
78987;SDS011;74752;44.786;37.680;2024-03-06T00:47:59;30.83;;;15.55;;
78987;SDS011;74752;44.786;37.680;2024-03-06T00:49:01;31.40;;;15.30;;
78987;SDS011;74752;44.786;37.680;2024-03-06T00:50:07;25.05;;;14.65;;
78987;SDS011;74752;44.786;37.680;2024-03-06T00:51:09;30.63;;;16.17;;
78987;SDS011;74752;44.786;37.680;2024-03-06T00:52:14;31.38;;;15.82;;
78987;SDS011;74752;44.786;37.680;2024-03-06T00:53:17;30.50;;;14.63;;
78987;SDS011;74752;44.786;37.680;2024-03-06T00:54:19;24.45;;;13.55;;
78987;SDS011;74752;44.786;37.680;2024-03-06T00:55:25;27.77;;;16.10;;
78987;SDS011;74752;44.786;37.680;2024-03-06T00:56:27;34.78;;;15.50;;
78987;SDS011;74752;44.786;37.680;2024-03-06T00:57:29;28.35;;;15.35;;
78987;SDS011;74752;44.786;37.680;2024-03-06T00:58:31;29.13;;;14.63;;
78987;SDS011;74752;44.786;37.680;2024-03-06T00:59:36;27.77;;;14.95;;
78987;SDS011;74752;44.786;37.680;2024-03-06T01:00:39;28.85;;;14.93;;
78987;SDS011;74752;44.786;37.680;2024-03-06T01:01:41;35.75;;;17.00;;
78987;SDS011;74752;44.786;37.680;2024-03-06T01:02:45;27.35;;;15.02;;
78987;SDS011;74752;44.786;37.680;2024-03-06T01:03:47;30.17;;;16.15;;
78987;SDS011;74752;44.786;37.680;2024-03-06T01:04:49;27.65;;;15.02;;
78987;SDS011;74752;44.786;37.680;2024-03-06T01:05:51;26.80;;;15.45;;
78987;SDS011;74752;44.786;37.680;2024-03-06T01:06:56;27.05;;;15.38;;
78987;SDS011;74752;44.786;37.680;2024-03-06T01:07:59;30.67;;;15.27;;
78987;SDS011;74752;44.786;37.680;2024-03-06T01:09:01;29.10;;;16.20;;
78987;SDS011;74752;44.786;37.680;2024-03-06T01:10:04;28.67;;;15.27;;
78987;SDS011;74752;44.786;37.680;2024-03-06T01:11:08;33.13;;;17.23;;
78987;SDS011;74752;44.786;37.680;2024-03-06T01:12:12;29.25;;;15.77;;
78987;SDS011;74752;44.786;37.680;2024-03-06T01:13:15;28.38;;;16.27;;
78987;SDS011;74752;44.786;37.680;2024-03-06T01:14:18;27.63;;;15.23;;
78987;SDS011;74752;44.786;37.680;2024-03-06T01:15:20;33.05;;;17.77;;
78987;SDS011;74752;44.786;37.680;2024-03-06T01:16:22;32.67;;;17.05;;
78987;SDS011;74752;44.786;37.680;2024-03-06T01:17:25;31.58;;;16.50;;
78987;SDS011;74752;44.786;37.680;2024-03-06T01:18:28;31.08;;;16.23;;
78987;SDS011;74752;44.786;37.680;2024-03-06T01:19:31;37.95;;;16.35;;
78987;SDS011;74752;44.786;37.680;2024-03-06T01:20:34;31.65;;;18.00;;
78987;SDS011;74752;44.786;37.680;2024-03-06T01:21:38;31.02;;;15.70;;
78987;SDS011;74752;44.786;37.680;2024-03-06T01:22:40;29.88;;;14.73;;
78987;SDS011;74752;44.786;37.680;2024-03-06T01:23:42;28.10;;;14.15;;
78987;SDS011;74752;44.786;37.680;2024-03-06T01:24:45;27.45;;;15.10;;
78987;SDS011;74752;44.786;37.680;2024-03-06T01:25:50;30.10;;;15.88;;
78987;SDS011;74752;44.786;37.680;2024-03-06T01:26:52;32.03;;;15.77;;
78987;SDS011;74752;44.786;37.680;2024-03-06T01:27:54;25.33;;;15.85;;
78987;SDS011;74752;44.786;37.680;2024-03-06T01:28:57;25.50;;;14.70;;
78987;SDS011;74752;44.786;37.680;2024-03-06T01:30:01;25.90;;;14.68;;
78987;SDS011;74752;44.786;37.680;2024-03-06T01:31:06;31.67;;;15.38;;
78987;SDS011;74752;44.786;37.680;2024-03-06T01:32:08;30.33;;;15.10;;
78987;SDS011;74752;44.786;37.680;2024-03-06T01:34:35;29.67;;;16.17;;
78987;SDS011;74752;44.786;37.680;2024-03-06T01:35:39;26.55;;;15.02;;
78987;SDS011;74752;44.786;37.680;2024-03-06T01:36:41;38.35;;;15.73;;
78987;SDS011;74752;44.786;37.680;2024-03-06T01:37:45;32.50;;;16.48;;
78987;SDS011;74752;44.786;37.680;2024-03-06T01:38:51;30.40;;;14.85;;
78987;SDS011;74752;44.786;37.680;2024-03-06T01:39:56;34.60;;;16.27;;
78987;SDS011;74752;44.786;37.680;2024-03-06T01:40:59;36.97;;;17.15;;
78987;SDS011;74752;44.786;37.680;2024-03-06T01:42:01;29.90;;;15.95;;
78987;SDS011;74752;44.786;37.680;2024-03-06T01:43:04;28.52;;;16.98;;
78987;SDS011;74752;44.786;37.680;2024-03-06T01:44:07;30.67;;;15.82;;
78987;SDS011;74752;44.786;37.680;2024-03-06T01:45:16;28.92;;;14.55;;
78987;SDS011;74752;44.786;37.680;2024-03-06T01:46:18;28.35;;;14.82;;
78987;SDS011;74752;44.786;37.680;2024-03-06T01:47:20;26.85;;;15.80;;
78987;SDS011;74752;44.786;37.680;2024-03-06T01:48:29;29.45;;;16.85;;
78987;SDS011;74752;44.786;37.680;2024-03-06T01:49:38;29.77;;;15.43;;
78987;SDS011;74752;44.786;37.680;2024-03-06T01:50:41;31.38;;;16.58;;
78987;SDS011;74752;44.786;37.680;2024-03-06T01:51:45;27.80;;;16.25;;
78987;SDS011;74752;44.786;37.680;2024-03-06T01:52:55;27.90;;;14.77;;
78987;SDS011;74752;44.786;37.680;2024-03-06T01:53:58;28.83;;;15.98;;
78987;SDS011;74752;44.786;37.680;2024-03-06T01:55:06;36.40;;;16.83;;
78987;SDS011;74752;44.786;37.680;2024-03-06T01:56:09;35.10;;;17.05;;
78987;SDS011;74752;44.786;37.680;2024-03-06T01:57:16;27.92;;;16.85;;
78987;SDS011;74752;44.786;37.680;2024-03-06T01:58:19;32.58;;;17.23;;
78987;SDS011;74752;44.786;37.680;2024-03-06T01:59:24;34.13;;;16.98;;
78987;SDS011;74752;44.786;37.680;2024-03-06T02:00:27;30.38;;;16.48;;
78987;SDS011;74752;44.786;37.680;2024-03-06T02:01:32;30.63;;;16.30;;
78987;SDS011;74752;44.786;37.680;2024-03-06T02:02:35;34.15;;;18.42;;
78987;SDS011;74752;44.786;37.680;2024-03-06T02:03:37;36.13;;;17.60;;
78987;SDS011;74752;44.786;37.680;2024-03-06T02:04:39;30.70;;;16.73;;
78987;SDS011;74752;44.786;37.680;2024-03-06T02:05:41;29.75;;;18.05;;
78987;SDS011;74752;44.786;37.680;2024-03-06T02:06:44;33.40;;;17.30;;
78987;SDS011;74752;44.786;37.680;2024-03-06T02:07:48;33.50;;;17.02;;
78987;SDS011;74752;44.786;37.680;2024-03-06T02:08:50;33.45;;;18.00;;
78987;SDS011;74752;44.786;37.680;2024-03-06T02:09:52;34.30;;;17.30;;
78987;SDS011;74752;44.786;37.680;2024-03-06T02:10:57;28.80;;;17.67;;
78987;SDS011;74752;44.786;37.680;2024-03-06T02:12:05;30.65;;;16.98;;
78987;SDS011;74752;44.786;37.680;2024-03-06T02:13:09;31.88;;;18.05;;
78987;SDS011;74752;44.786;37.680;2024-03-06T02:14:17;33.95;;;16.80;;
78987;SDS011;74752;44.786;37.680;2024-03-06T02:15:19;34.75;;;17.02;;
78987;SDS011;74752;44.786;37.680;2024-03-06T02:16:21;30.63;;;16.52;;
78987;SDS011;74752;44.786;37.680;2024-03-06T02:17:24;29.95;;;18.08;;
78987;SDS011;74752;44.786;37.680;2024-03-06T02:18:27;32.38;;;17.83;;
78987;SDS011;74752;44.786;37.680;2024-03-06T02:19:39;31.88;;;17.17;;
78987;SDS011;74752;44.786;37.680;2024-03-06T02:20:44;36.22;;;17.33;;
78987;SDS011;74752;44.786;37.680;2024-03-06T02:21:51;44.70;;;19.13;;
78987;SDS011;74752;44.786;37.680;2024-03-06T02:22:55;30.23;;;17.30;;
78987;SDS011;74752;44.786;37.680;2024-03-06T02:24:01;31.70;;;16.80;;
78987;SDS011;74752;44.786;37.680;2024-03-06T02:25:05;33.65;;;17.55;;
78987;SDS011;74752;44.786;37.680;2024-03-06T02:26:09;29.63;;;16.42;;
78987;SDS011;74752;44.786;37.680;2024-03-06T02:27:12;41.42;;;17.10;;
78987;SDS011;74752;44.786;37.680;2024-03-06T02:28:14;30.65;;;17.08;;
78987;SDS011;74752;44.786;37.680;2024-03-06T02:29:17;37.30;;;17.08;;
78987;SDS011;74752;44.786;37.680;2024-03-06T02:30:19;33.90;;;16.63;;
78987;SDS011;74752;44.786;37.680;2024-03-06T02:31:29;33.58;;;15.88;;
78987;SDS011;74752;44.786;37.680;2024-03-06T02:32:31;34.88;;;16.75;;
78987;SDS011;74752;44.786;37.680;2024-03-06T02:33:39;30.35;;;15.63;;
78987;SDS011;74752;44.786;37.680;2024-03-06T02:34:41;33.90;;;17.25;;
78987;SDS011;74752;44.786;37.680;2024-03-06T02:35:44;32.25;;;17.60;;
78987;SDS011;74752;44.786;37.680;2024-03-06T02:36:47;30.38;;;16.10;;
78987;SDS011;74752;44.786;37.680;2024-03-06T02:37:50;30.95;;;15.60;;
78987;SDS011;74752;44.786;37.680;2024-03-06T02:38:54;33.92;;;16.77;;
78987;SDS011;74752;44.786;37.680;2024-03-06T02:39:57;36.85;;;19.02;;
78987;SDS011;74752;44.786;37.680;2024-03-06T02:41:00;30.50;;;17.48;;
78987;SDS011;74752;44.786;37.680;2024-03-06T02:42:02;40.03;;;19.10;;
78987;SDS011;74752;44.786;37.680;2024-03-06T02:43:08;31.15;;;18.45;;
78987;SDS011;74752;44.786;37.680;2024-03-06T02:44:10;33.75;;;19.00;;
78987;SDS011;74752;44.786;37.680;2024-03-06T02:45:12;38.15;;;19.75;;
78987;SDS011;74752;44.786;37.680;2024-03-06T02:46:15;35.25;;;17.48;;
78987;SDS011;74752;44.786;37.680;2024-03-06T02:47:21;28.17;;;17.33;;
78987;SDS011;74752;44.786;37.680;2024-03-06T02:48:29;34.90;;;18.15;;
78987;SDS011;74752;44.786;37.680;2024-03-06T02:50:34;31.52;;;16.35;;
78987;SDS011;74752;44.786;37.680;2024-03-06T02:51:41;31.77;;;17.02;;
78987;SDS011;74752;44.786;37.680;2024-03-06T02:52:45;34.58;;;17.60;;
78987;SDS011;74752;44.786;37.680;2024-03-06T02:53:48;28.13;;;16.48;;
78987;SDS011;74752;44.786;37.680;2024-03-06T02:54:51;31.55;;;16.13;;
78987;SDS011;74752;44.786;37.680;2024-03-06T02:55:54;36.05;;;17.08;;
78987;SDS011;74752;44.786;37.680;2024-03-06T02:56:59;27.70;;;16.05;;
78987;SDS011;74752;44.786;37.680;2024-03-06T02:58:01;34.75;;;18.10;;
78987;SDS011;74752;44.786;37.680;2024-03-06T02:59:08;33.00;;;17.02;;
78987;SDS011;74752;44.786;37.680;2024-03-06T03:00:11;28.75;;;16.30;;
78987;SDS011;74752;44.786;37.680;2024-03-06T03:01:15;30.50;;;15.52;;
78987;SDS011;74752;44.786;37.680;2024-03-06T03:02:17;29.80;;;16.25;;
78987;SDS011;74752;44.786;37.680;2024-03-06T03:03:21;31.73;;;17.42;;
78987;SDS011;74752;44.786;37.680;2024-03-06T03:04:24;28.17;;;15.05;;
78987;SDS011;74752;44.786;37.680;2024-03-06T03:05:27;38.38;;;17.35;;
78987;SDS011;74752;44.786;37.680;2024-03-06T03:06:29;32.90;;;17.40;;
78987;SDS011;74752;44.786;37.680;2024-03-06T03:07:32;31.98;;;18.00;;
78987;SDS011;74752;44.786;37.680;2024-03-06T03:08:34;33.47;;;17.95;;
78987;SDS011;74752;44.786;37.680;2024-03-06T03:09:38;33.72;;;17.63;;
78987;SDS011;74752;44.786;37.680;2024-03-06T03:10:40;33.78;;;16.70;;
78987;SDS011;74752;44.786;37.680;2024-03-06T03:11:42;35.33;;;18.48;;
78987;SDS011;74752;44.786;37.680;2024-03-06T03:12:46;51.55;;;19.33;;
78987;SDS011;74752;44.786;37.680;2024-03-06T03:13:50;52.45;;;18.85;;
78987;SDS011;74752;44.786;37.680;2024-03-06T03:15:01;32.97;;;18.38;;
78987;SDS011;74752;44.786;37.680;2024-03-06T03:16:04;34.60;;;18.73;;
78987;SDS011;74752;44.786;37.680;2024-03-06T03:18:11;37.97;;;19.00;;
78987;SDS011;74752;44.786;37.680;2024-03-06T03:19:14;33.95;;;19.02;;
78987;SDS011;74752;44.786;37.680;2024-03-06T03:20:20;31.48;;;17.67;;
78987;SDS011;74752;44.786;37.680;2024-03-06T03:21:25;38.00;;;19.60;;
78987;SDS011;74752;44.786;37.680;2024-03-06T03:22:28;36.53;;;20.70;;
78987;SDS011;74752;44.786;37.680;2024-03-06T03:23:37;40.83;;;21.10;;
78987;SDS011;74752;44.786;37.680;2024-03-06T03:24:44;39.63;;;20.67;;
78987;SDS011;74752;44.786;37.680;2024-03-06T03:25:47;39.17;;;19.60;;
78987;SDS011;74752;44.786;37.680;2024-03-06T03:26:50;37.42;;;18.95;;
78987;SDS011;74752;44.786;37.680;2024-03-06T03:27:52;38.00;;;18.90;;
78987;SDS011;74752;44.786;37.680;2024-03-06T03:28:55;38.75;;;18.17;;
78987;SDS011;74752;44.786;37.680;2024-03-06T03:30:00;35.38;;;18.92;;
78987;SDS011;74752;44.786;37.680;2024-03-06T03:31:02;40.67;;;19.02;;
78987;SDS011;74752;44.786;37.680;2024-03-06T03:32:05;36.17;;;19.70;;
78987;SDS011;74752;44.786;37.680;2024-03-06T03:33:07;45.00;;;21.10;;
78987;SDS011;74752;44.786;37.680;2024-03-06T03:34:12;36.45;;;19.77;;
78987;SDS011;74752;44.786;37.680;2024-03-06T03:35:17;39.35;;;19.67;;
78987;SDS011;74752;44.786;37.680;2024-03-06T03:36:25;45.40;;;21.10;;
78987;SDS011;74752;44.786;37.680;2024-03-06T03:37:28;37.08;;;20.60;;
78987;SDS011;74752;44.786;37.680;2024-03-06T03:38:33;39.88;;;19.52;;
78987;SDS011;74752;44.786;37.680;2024-03-06T03:39:43;39.95;;;19.90;;
78987;SDS011;74752;44.786;37.680;2024-03-06T03:40:46;41.25;;;19.50;;
78987;SDS011;74752;44.786;37.680;2024-03-06T03:41:49;37.80;;;20.08;;
78987;SDS011;74752;44.786;37.680;2024-03-06T03:42:51;41.47;;;18.65;;
78987;SDS011;74752;44.786;37.680;2024-03-06T03:43:56;33.70;;;18.95;;
78987;SDS011;74752;44.786;37.680;2024-03-06T03:44:59;42.53;;;21.15;;
78987;SDS011;74752;44.786;37.680;2024-03-06T03:46:01;40.55;;;21.58;;
78987;SDS011;74752;44.786;37.680;2024-03-06T03:47:06;46.17;;;20.42;;
78987;SDS011;74752;44.786;37.680;2024-03-06T03:48:08;46.05;;;21.13;;
78987;SDS011;74752;44.786;37.680;2024-03-06T03:49:17;42.75;;;20.75;;
78987;SDS011;74752;44.786;37.680;2024-03-06T03:50:20;40.58;;;20.42;;
78987;SDS011;74752;44.786;37.680;2024-03-06T03:51:22;48.63;;;21.02;;
78987;SDS011;74752;44.786;37.680;2024-03-06T03:52:24;52.40;;;21.73;;
78987;SDS011;74752;44.786;37.680;2024-03-06T03:53:30;46.60;;;21.70;;
78987;SDS011;74752;44.786;37.680;2024-03-06T03:54:34;43.05;;;21.20;;
78987;SDS011;74752;44.786;37.680;2024-03-06T03:55:40;40.38;;;21.58;;
78987;SDS011;74752;44.786;37.680;2024-03-06T03:56:42;40.55;;;18.75;;
78987;SDS011;74752;44.786;37.680;2024-03-06T03:57:45;38.35;;;20.13;;
78987;SDS011;74752;44.786;37.680;2024-03-06T03:58:52;38.38;;;21.08;;
78987;SDS011;74752;44.786;37.680;2024-03-06T03:59:57;41.38;;;21.10;;
78987;SDS011;74752;44.786;37.680;2024-03-06T04:00:59;50.63;;;21.00;;
78987;SDS011;74752;44.786;37.680;2024-03-06T04:02:01;45.03;;;22.75;;
78987;SDS011;74752;44.786;37.680;2024-03-06T04:03:08;40.08;;;20.33;;
78987;SDS011;74752;44.786;37.680;2024-03-06T04:04:18;36.05;;;20.02;;
78987;SDS011;74752;44.786;37.680;2024-03-06T04:05:20;39.80;;;20.63;;
78987;SDS011;74752;44.786;37.680;2024-03-06T04:06:24;44.72;;;20.92;;
78987;SDS011;74752;44.786;37.680;2024-03-06T04:07:27;97.55;;;26.45;;
78987;SDS011;74752;44.786;37.680;2024-03-06T04:08:29;55.35;;;24.27;;
78987;SDS011;74752;44.786;37.680;2024-03-06T04:09:35;43.95;;;23.10;;
78987;SDS011;74752;44.786;37.680;2024-03-06T04:10:41;46.58;;;24.00;;
78987;SDS011;74752;44.786;37.680;2024-03-06T04:11:47;43.38;;;23.15;;
78987;SDS011;74752;44.786;37.680;2024-03-06T04:12:49;46.63;;;21.60;;
78987;SDS011;74752;44.786;37.680;2024-03-06T04:13:55;103.30;;;26.27;;
78987;SDS011;74752;44.786;37.680;2024-03-06T04:14:57;43.65;;;20.77;;
78987;SDS011;74752;44.786;37.680;2024-03-06T04:15:59;43.35;;;23.23;;
78987;SDS011;74752;44.786;37.680;2024-03-06T04:17:01;43.80;;;23.02;;
78987;SDS011;74752;44.786;37.680;2024-03-06T04:18:05;45.53;;;23.77;;
78987;SDS011;74752;44.786;37.680;2024-03-06T04:19:12;45.42;;;23.05;;
78987;SDS011;74752;44.786;37.680;2024-03-06T04:20:15;50.38;;;22.42;;
78987;SDS011;74752;44.786;37.680;2024-03-06T04:21:18;46.50;;;23.38;;
78987;SDS011;74752;44.786;37.680;2024-03-06T04:22:20;40.75;;;20.58;;
78987;SDS011;74752;44.786;37.680;2024-03-06T04:23:22;32.53;;;20.38;;
78987;SDS011;74752;44.786;37.680;2024-03-06T04:24:25;41.55;;;21.77;;
78987;SDS011;74752;44.786;37.680;2024-03-06T04:25:28;60.92;;;23.13;;
78987;SDS011;74752;44.786;37.680;2024-03-06T04:26:31;54.35;;;22.13;;
78987;SDS011;74752;44.786;37.680;2024-03-06T04:27:36;39.50;;;21.52;;
78987;SDS011;74752;44.786;37.680;2024-03-06T04:28:39;51.20;;;22.15;;
78987;SDS011;74752;44.786;37.680;2024-03-06T04:29:44;94.85;;;24.65;;
78987;SDS011;74752;44.786;37.680;2024-03-06T04:30:52;43.00;;;20.63;;
78987;SDS011;74752;44.786;37.680;2024-03-06T04:31:55;48.78;;;23.20;;
78987;SDS011;74752;44.786;37.680;2024-03-06T04:33:00;46.78;;;22.75;;
78987;SDS011;74752;44.786;37.680;2024-03-06T04:34:05;35.20;;;20.55;;
78987;SDS011;74752;44.786;37.680;2024-03-06T04:35:07;43.30;;;20.95;;
78987;SDS011;74752;44.786;37.680;2024-03-06T04:36:18;42.58;;;23.40;;
78987;SDS011;74752;44.786;37.680;2024-03-06T04:37:20;35.38;;;21.48;;
78987;SDS011;74752;44.786;37.680;2024-03-06T04:38:22;42.25;;;21.65;;
78987;SDS011;74752;44.786;37.680;2024-03-06T04:39:24;47.50;;;21.90;;
78987;SDS011;74752;44.786;37.680;2024-03-06T04:40:31;49.05;;;22.45;;
78987;SDS011;74752;44.786;37.680;2024-03-06T04:41:35;44.72;;;22.27;;
78987;SDS011;74752;44.786;37.680;2024-03-06T04:42:41;42.65;;;23.05;;
78987;SDS011;74752;44.786;37.680;2024-03-06T04:43:45;48.95;;;24.33;;
78987;SDS011;74752;44.786;37.680;2024-03-06T04:44:51;42.10;;;24.38;;
78987;SDS011;74752;44.786;37.680;2024-03-06T04:45:55;48.40;;;24.27;;
78987;SDS011;74752;44.786;37.680;2024-03-06T04:47:00;81.18;;;26.00;;
78987;SDS011;74752;44.786;37.680;2024-03-06T04:48:02;45.03;;;22.75;;
78987;SDS011;74752;44.786;37.680;2024-03-06T04:49:08;39.17;;;23.38;;
78987;SDS011;74752;44.786;37.680;2024-03-06T04:50:13;41.75;;;23.52;;
78987;SDS011;74752;44.786;37.680;2024-03-06T04:51:19;54.20;;;24.67;;
78987;SDS011;74752;44.786;37.680;2024-03-06T04:52:21;42.70;;;23.50;;
78987;SDS011;74752;44.786;37.680;2024-03-06T04:53:27;42.55;;;22.50;;
78987;SDS011;74752;44.786;37.680;2024-03-06T04:54:30;48.45;;;24.40;;
78987;SDS011;74752;44.786;37.680;2024-03-06T04:55:32;53.55;;;24.75;;
78987;SDS011;74752;44.786;37.680;2024-03-06T04:56:35;44.42;;;23.00;;
78987;SDS011;74752;44.786;37.680;2024-03-06T04:57:38;41.45;;;22.45;;
78987;SDS011;74752;44.786;37.680;2024-03-06T04:58:41;46.72;;;22.55;;
78987;SDS011;74752;44.786;37.680;2024-03-06T04:59:45;39.10;;;22.55;;
78987;SDS011;74752;44.786;37.680;2024-03-06T05:00:47;110.57;;;28.73;;
78987;SDS011;74752;44.786;37.680;2024-03-06T05:01:49;57.05;;;23.17;;
78987;SDS011;74752;44.786;37.680;2024-03-06T05:02:54;43.30;;;22.45;;
78987;SDS011;74752;44.786;37.680;2024-03-06T05:03:57;46.17;;;21.63;;
78987;SDS011;74752;44.786;37.680;2024-03-06T05:04:59;49.40;;;22.38;;
78987;SDS011;74752;44.786;37.680;2024-03-06T05:06:11;38.28;;;20.17;;
78987;SDS011;74752;44.786;37.680;2024-03-06T05:08:31;39.08;;;20.80;;
78987;SDS011;74752;44.786;37.680;2024-03-06T05:09:35;32.65;;;19.25;;
78987;SDS011;74752;44.786;37.680;2024-03-06T05:10:39;36.72;;;22.45;;
78987;SDS011;74752;44.786;37.680;2024-03-06T05:11:41;40.67;;;21.42;;
78987;SDS011;74752;44.786;37.680;2024-03-06T05:12:44;48.65;;;20.67;;
78987;SDS011;74752;44.786;37.680;2024-03-06T05:13:47;37.28;;;20.55;;
78987;SDS011;74752;44.786;37.680;2024-03-06T05:14:51;42.05;;;22.17;;
78987;SDS011;74752;44.786;37.680;2024-03-06T05:16:02;35.38;;;22.00;;
78987;SDS011;74752;44.786;37.680;2024-03-06T05:17:14;40.78;;;22.15;;
78987;SDS011;74752;44.786;37.680;2024-03-06T05:18:20;30.85;;;20.15;;
78987;SDS011;74752;44.786;37.680;2024-03-06T05:19:24;41.35;;;19.73;;
78987;SDS011;74752;44.786;37.680;2024-03-06T05:20:35;37.90;;;20.13;;
78987;SDS011;74752;44.786;37.680;2024-03-06T05:21:40;36.75;;;19.75;;
78987;SDS011;74752;44.786;37.680;2024-03-06T05:22:42;37.00;;;19.77;;
78987;SDS011;74752;44.786;37.680;2024-03-06T05:23:52;41.00;;;20.15;;
78987;SDS011;74752;44.786;37.680;2024-03-06T05:25:00;36.00;;;19.80;;
78987;SDS011;74752;44.786;37.680;2024-03-06T05:26:05;35.17;;;20.48;;
78987;SDS011;74752;44.786;37.680;2024-03-06T05:27:10;32.92;;;18.65;;
78987;SDS011;74752;44.786;37.680;2024-03-06T05:28:18;50.42;;;21.35;;
78987;SDS011;74752;44.786;37.680;2024-03-06T05:29:21;45.30;;;20.58;;
78987;SDS011;74752;44.786;37.680;2024-03-06T05:30:23;36.55;;;18.95;;
78987;SDS011;74752;44.786;37.680;2024-03-06T05:31:25;39.97;;;18.92;;
78987;SDS011;74752;44.786;37.680;2024-03-06T05:32:28;36.90;;;19.45;;
78987;SDS011;74752;44.786;37.680;2024-03-06T05:33:29;57.40;;;21.27;;
78987;SDS011;74752;44.786;37.680;2024-03-06T05:34:34;34.25;;;20.35;;
78987;SDS011;74752;44.786;37.680;2024-03-06T05:35:36;34.03;;;19.92;;
78987;SDS011;74752;44.786;37.680;2024-03-06T05:36:39;43.03;;;21.73;;
78987;SDS011;74752;44.786;37.680;2024-03-06T05:37:45;39.70;;;21.45;;
78987;SDS011;74752;44.786;37.680;2024-03-06T05:38:48;36.47;;;19.98;;
78987;SDS011;74752;44.786;37.680;2024-03-06T05:39:53;35.28;;;21.80;;
78987;SDS011;74752;44.786;37.680;2024-03-06T05:40:57;31.42;;;20.05;;
78987;SDS011;74752;44.786;37.680;2024-03-06T05:42:02;34.15;;;20.02;;
78987;SDS011;74752;44.786;37.680;2024-03-06T05:43:05;41.13;;;20.13;;
78987;SDS011;74752;44.786;37.680;2024-03-06T05:44:08;40.70;;;21.38;;
78987;SDS011;74752;44.786;37.680;2024-03-06T05:45:13;35.50;;;21.15;;
78987;SDS011;74752;44.786;37.680;2024-03-06T05:46:22;38.58;;;19.67;;
78987;SDS011;74752;44.786;37.680;2024-03-06T05:47:30;38.20;;;20.00;;
78987;SDS011;74752;44.786;37.680;2024-03-06T05:48:35;35.85;;;23.80;;
78987;SDS011;74752;44.786;37.680;2024-03-06T05:49:38;36.35;;;19.67;;
78987;SDS011;74752;44.786;37.680;2024-03-06T05:50:44;50.75;;;25.73;;
78987;SDS011;74752;44.786;37.680;2024-03-06T05:51:51;84.57;;;22.80;;
78987;SDS011;74752;44.786;37.680;2024-03-06T05:52:56;42.88;;;22.80;;
78987;SDS011;74752;44.786;37.680;2024-03-06T05:54:01;37.78;;;21.58;;
78987;SDS011;74752;44.786;37.680;2024-03-06T05:55:10;43.05;;;24.02;;
78987;SDS011;74752;44.786;37.680;2024-03-06T05:56:18;37.67;;;21.60;;
78987;SDS011;74752;44.786;37.680;2024-03-06T05:57:23;39.40;;;20.42;;
78987;SDS011;74752;44.786;37.680;2024-03-06T05:58:30;54.42;;;20.77;;
78987;SDS011;74752;44.786;37.680;2024-03-06T05:59:34;36.85;;;20.35;;
78987;SDS011;74752;44.786;37.680;2024-03-06T06:00:36;55.33;;;20.85;;
78987;SDS011;74752;44.786;37.680;2024-03-06T06:01:39;38.47;;;18.70;;
78987;SDS011;74752;44.786;37.680;2024-03-06T06:02:41;43.55;;;23.85;;
78987;SDS011;74752;44.786;37.680;2024-03-06T06:03:46;48.60;;;24.38;;
78987;SDS011;74752;44.786;37.680;2024-03-06T06:04:52;43.15;;;26.00;;
78987;SDS011;74752;44.786;37.680;2024-03-06T06:05:54;35.92;;;19.40;;
78987;SDS011;74752;44.786;37.680;2024-03-06T06:06:56;25.23;;;15.95;;
78987;SDS011;74752;44.786;37.680;2024-03-06T06:08:01;31.30;;;18.20;;
78987;SDS011;74752;44.786;37.680;2024-03-06T06:09:08;30.67;;;16.27;;
78987;SDS011;74752;44.786;37.680;2024-03-06T06:10:17;30.27;;;17.23;;
78987;SDS011;74752;44.786;37.680;2024-03-06T06:11:21;26.73;;;16.65;;
78987;SDS011;74752;44.786;37.680;2024-03-06T06:12:23;40.33;;;23.40;;
78987;SDS011;74752;44.786;37.680;2024-03-06T06:13:27;42.25;;;25.15;;
78987;SDS011;74752;44.786;37.680;2024-03-06T06:14:33;37.97;;;22.80;;